Time;durP1;ratioP1;P1;durP2;ratioP2;P2;SDS_P1;SDS_P2;PMS_P1;PMS_P2;Temp;Humidity;BMP_temperature;BMP_pressure;BME280_temperature;BME280_humidity;BME280_pressure;Samples;Min_cycle;Max_cycle;Signal;HPM_P1;HPM_P2
2024/01/01 00:00:09;;;;;;;329.17;125.77;;;;;;;;;;4942187;28;20282;-73
2024/01/01 00:02:34;;;;;;;294.33;112.63;;;;;;;;;;4954608;28;20659;-74
2024/01/01 00:04:59;;;;;;;273.53;105.73;;;;;;;;;;4958539;28;20224;-74
2024/01/01 00:07:24;;;;;;;253.20;99.77;;;;;;;;;;4955776;28;20595;-73
2024/01/01 00:09:50;;;;;;;261.67;101.80;;;;;;;;;;4964208;28;20235;-74
2024/01/01 00:12:15;;;;;;;271.73;105.27;;;;;;;;;;4965972;28;20863;-74
2024/01/01 00:14:40;;;;;;;288.47;111.37;;;;;;;;;;4946568;28;20220;-74
2024/01/01 00:17:06;;;;;;;309.47;115.57;;;;;;;;;;4962680;28;20295;-74
2024/01/01 00:19:31;;;;;;;321.23;121.03;;;;;;;;;;4963646;28;20266;-74
2024/01/01 00:21:56;;;;;;;330.97;123.50;;;;;;;;;;4968563;28;20224;-74
2024/01/01 00:24:22;;;;;;;314.83;119.40;;;;;;;;;;4958140;28;20232;-73
2024/01/01 00:26:47;;;;;;;303.93;121.17;;;;;;;;;;4942065;28;20239;-73
2024/01/01 00:29:13;;;;;;;324.43;123.47;;;;;;;;;;4960066;28;20886;-73
2024/01/01 00:31:39;;;;;;;331.77;123.67;;;;;;;;;;4958844;28;20232;-73
2024/01/01 00:34:04;;;;;;;321.37;122.70;;;;;;;;;;4954313;28;20251;-72
2024/01/01 00:36:30;;;;;;;312.27;120.87;;;;;;;;;;4954953;28;20815;-73
2024/01/01 00:38:55;;;;;;;337.33;124.67;;;;;;;;;;4957105;28;20716;-73
2024/01/01 00:41:20;;;;;;;332.37;121.80;;;;;;;;;;4941912;28;20216;-72
2024/01/01 00:43:46;;;;;;;308.50;116.90;;;;;;;;;;4955867;28;20231;-73
2024/01/01 00:46:11;;;;;;;316.50;116.67;;;;;;;;;;4962637;28;20761;-73
2024/01/01 00:48:36;;;;;;;323.00;117.53;;;;;;;;;;4962726;28;20220;-73
2024/01/01 00:51:02;;;;;;;324.33;118.43;;;;;;;;;;4963390;28;20232;-73
2024/01/01 00:53:27;;;;;;;311.10;116.50;;;;;;;;;;4959359;28;20234;-73
2024/01/01 00:55:53;;;;;;;338.03;121.60;;;;;;;;;;4961717;28;20339;-73
2024/01/01 00:58:18;;;;;;;320.93;119.60;;;;;;;;;;4962446;28;20243;-73
2024/01/01 01:00:43;;;;;;;324.67;118.80;;;;;;;;;;4955249;28;20702;-73
2024/01/01 01:03:09;;;;;;;310.63;115.90;;;;;;;;;;4962874;28;20230;-73
2024/01/01 01:05:34;;;;;;;307.87;115.20;;;;;;;;;;4955163;28;20242;-73
2024/01/01 01:07:59;;;;;;;326.87;118.77;;;;;;;;;;4946271;28;20307;-73
2024/01/01 01:10:25;;;;;;;317.93;117.67;;;;;;;;;;4961991;28;20617;-73
2024/01/01 01:12:53;;;;;;;324.90;120.17;;;;;;;;;;4939891;28;20223;-73
2024/01/01 01:15:19;;;;;;;327.37;118.67;;;;;;;;;;4963305;28;20899;-74
2024/01/01 01:17:44;;;;;;;319.30;117.10;;;;;;;;;;4956044;28;20222;-73
2024/01/01 01:20:09;;;;;;;329.90;121.20;;;;;;;;;;4962510;28;20275;-74
2024/01/01 01:22:35;;;;;;;335.67;119.70;;;;;;;;;;4958029;28;20662;-73
2024/01/01 01:25:00;;;;;;;350.30;126.53;;;;;;;;;;4938272;28;20231;-75
2024/01/01 01:27:25;;;;;;;342.97;122.57;;;;;;;;;;4962717;28;20803;-73
2024/01/01 01:29:51;;;;;;;335.53;121.50;;;;;;;;;;4960128;28;20856;-73
2024/01/01 01:32:16;;;;;;;359.33;123.00;;;;;;;;;;4958502;28;20227;-73
2024/01/01 01:34:42;;;;;;;348.80;123.50;;;;;;;;;;4966850;28;20284;-74
2024/01/01 01:37:07;;;;;;;339.27;123.33;;;;;;;;;;4963100;28;20954;-74
2024/01/01 01:39:33;;;;;;;354.53;123.27;;;;;;;;;;4950388;28;20866;-74
2024/01/01 01:41:58;;;;;;;350.67;121.67;;;;;;;;;;4960970;28;20239;-73
2024/01/01 01:44:23;;;;;;;337.00;119.77;;;;;;;;;;4949519;28;20236;-74
2024/01/01 01:46:49;;;;;;;347.00;121.97;;;;;;;;;;4966858;28;20327;-73
2024/01/01 01:49:14;;;;;;;343.60;119.63;;;;;;;;;;4948845;28;20934;-73
2024/01/01 01:51:39;;;;;;;338.10;119.87;;;;;;;;;;4949721;28;20273;-73
2024/01/01 01:54:04;;;;;;;328.67;119.03;;;;;;;;;;4948682;28;20220;-73
2024/01/01 01:56:30;;;;;;;336.10;118.87;;;;;;;;;;4958395;28;20220;-74
2024/01/01 01:58:55;;;;;;;335.17;120.37;;;;;;;;;;4956171;28;20788;-75
2024/01/01 02:01:20;;;;;;;338.20;120.40;;;;;;;;;;4959492;28;20212;-73
2024/01/01 02:03:46;;;;;;;326.83;118.60;;;;;;;;;;4961168;28;20231;-72
2024/01/01 02:06:11;;;;;;;328.77;120.13;;;;;;;;;;4965951;28;20294;-74
2024/01/01 02:08:37;;;;;;;325.13;118.30;;;;;;;;;;4959416;28;20243;-73
2024/01/01 02:11:02;;;;;;;326.23;119.83;;;;;;;;;;4965712;28;20263;-73
2024/01/01 02:13:28;;;;;;;343.67;120.97;;;;;;;;;;4965447;28;20288;-73
2024/01/01 02:15:53;;;;;;;335.57;121.07;;;;;;;;;;4948350;28;21115;-73
2024/01/01 02:18:19;;;;;;;333.57;117.50;;;;;;;;;;4948806;28;20224;-73
2024/01/01 02:20:44;;;;;;;322.37;117.53;;;;;;;;;;4959987;28;20228;-73
2024/01/01 02:23:09;;;;;;;332.03;122.80;;;;;;;;;;4940981;28;20251;-74
2024/01/01 02:25:35;;;;;;;337.03;121.20;;;;;;;;;;4964201;28;20224;-74
2024/01/01 02:28:00;;;;;;;327.10;118.50;;;;;;;;;;4957138;28;20236;-74
2024/01/01 02:30:25;;;;;;;344.13;125.47;;;;;;;;;;4955001;28;20235;-74
2024/01/01 02:32:51;;;;;;;341.63;124.83;;;;;;;;;;4949950;28;20223;-74
2024/01/01 02:35:16;;;;;;;345.10;121.87;;;;;;;;;;4961284;28;20228;-74
2024/01/01 02:37:41;;;;;;;355.13;125.80;;;;;;;;;;4955167;28;20369;-74
2024/01/01 02:40:08;;;;;;;381.80;135.47;;;;;;;;;;4946530;28;20978;-73
2024/01/01 02:42:33;;;;;;;409.47;146.40;;;;;;;;;;4953303;28;20711;-73
2024/01/01 02:44:59;;;;;;;401.40;141.17;;;;;;;;;;4964347;28;21187;-74
2024/01/01 02:47:24;;;;;;;397.43;140.27;;;;;;;;;;4966492;28;20239;-74
2024/01/01 02:49:49;;;;;;;393.63;139.43;;;;;;;;;;4965107;28;20254;-73
2024/01/01 02:52:15;;;;;;;466.73;167.80;;;;;;;;;;4949565;28;20223;-73
2024/01/01 02:54:40;;;;;;;468.63;168.70;;;;;;;;;;4958591;28;20227;-73
2024/01/01 02:57:06;;;;;;;471.03;169.40;;;;;;;;;;4942250;28;20749;-73
2024/01/01 02:59:33;;;;;;;467.30;163.13;;;;;;;;;;4965820;28;20251;-73
2024/01/01 03:01:58;;;;;;;478.07;163.77;;;;;;;;;;4947842;28;20303;-74
2024/01/01 03:04:24;;;;;;;460.73;160.10;;;;;;;;;;4942291;28;20224;-72
2024/01/01 03:06:50;;;;;;;455.20;161.33;;;;;;;;;;4959755;28;20263;-73
2024/01/01 03:09:15;;;;;;;452.00;156.70;;;;;;;;;;4959564;28;20231;-74
2024/01/01 03:11:40;;;;;;;437.70;153.27;;;;;;;;;;4963642;28;20220;-73
2024/01/01 03:14:06;;;;;;;429.97;149.27;;;;;;;;;;4963487;28;20894;-73
2024/01/01 03:16:32;;;;;;;438.17;151.80;;;;;;;;;;4963959;28;20299;-73
2024/01/01 03:18:58;;;;;;;432.97;151.40;;;;;;;;;;4962777;28;20290;-74
2024/01/01 03:21:23;;;;;;;410.63;142.93;;;;;;;;;;4959566;28;20232;-74
2024/01/01 03:23:48;;;;;;;390.30;139.97;;;;;;;;;;4958499;28;20235;-73
2024/01/01 03:26:14;;;;;;;400.70;139.83;;;;;;;;;;4956419;28;20240;-74
2024/01/01 03:28:39;;;;;;;411.37;149.43;;;;;;;;;;4947586;28;20520;-73
2024/01/01 03:31:04;;;;;;;446.33;156.93;;;;;;;;;;4956914;28;20271;-73
2024/01/01 03:33:33;;;;;;;465.13;157.80;;;;;;;;;;4964513;28;20223;-72
2024/01/01 03:35:58;;;;;;;429.57;149.70;;;;;;;;;;4959552;28;20239;-74
2024/01/01 03:38:23;;;;;;;414.73;142.10;;;;;;;;;;4959083;28;20209;-73
2024/01/01 03:40:49;;;;;;;403.17;142.33;;;;;;;;;;4953023;28;20302;-74
2024/01/01 03:43:14;;;;;;;378.27;133.13;;;;;;;;;;4935935;28;20248;-74
2024/01/01 03:45:41;;;;;;;370.00;134.47;;;;;;;;;;4953547;28;20232;-74
2024/01/01 03:48:07;;;;;;;354.17;127.50;;;;;;;;;;4963043;28;20812;-73
2024/01/01 03:50:33;;;;;;;341.13;120.87;;;;;;;;;;4962981;28;20228;-74
2024/01/01 03:52:58;;;;;;;341.43;122.87;;;;;;;;;;4958401;28;20255;-74
2024/01/01 03:55:23;;;;;;;331.70;122.77;;;;;;;;;;4958006;28;20228;-74
2024/01/01 03:57:49;;;;;;;335.63;118.27;;;;;;;;;;4962799;28;20255;-74
2024/01/01 04:00:14;;;;;;;318.40;115.50;;;;;;;;;;4955764;28;20322;-74
2024/01/01 04:02:40;;;;;;;308.10;108.40;;;;;;;;;;4963465;28;20224;-74
2024/01/01 04:05:06;;;;;;;294.97;110.13;;;;;;;;;;4963220;28;20843;-74
2024/01/01 04:07:33;;;;;;;285.07;102.47;;;;;;;;;;4946980;28;20897;-73
2024/01/01 04:09:58;;;;;;;268.60;99.57;;;;;;;;;;4947034;28;20231;-74
2024/01/01 04:12:23;;;;;;;279.90;99.53;;;;;;;;;;4964311;28;20223;-73
2024/01/01 04:14:49;;;;;;;251.13;93.73;;;;;;;;;;4955151;28;20281;-74
2024/01/01 04:17:14;;;;;;;257.80;92.07;;;;;;;;;;4946089;28;20228;-73
2024/01/01 04:19:44;;;;;;;243.43;90.60;;;;;;;;;;4959090;28;20231;-73
2024/01/01 04:22:09;;;;;;;237.87;90.17;;;;;;;;;;4955995;28;20240;-74
2024/01/01 04:24:35;;;;;;;241.87;90.23;;;;;;;;;;4941247;28;20632;-74
2024/01/01 04:27:00;;;;;;;236.70;88.47;;;;;;;;;;4957487;28;20235;-73
2024/01/01 04:29:25;;;;;;;248.03;92.97;;;;;;;;;;4963469;28;20705;-74
2024/01/01 04:31:50;;;;;;;254.87;93.67;;;;;;;;;;4964358;28;20291;-74
2024/01/01 04:34:16;;;;;;;262.77;95.77;;;;;;;;;;4963334;28;20228;-74
2024/01/01 04:36:41;;;;;;;252.83;94.80;;;;;;;;;;4958938;28;20224;-72
2024/01/01 04:39:06;;;;;;;261.13;94.50;;;;;;;;;;4963079;28;20224;-74
2024/01/01 04:41:32;;;;;;;254.07;94.50;;;;;;;;;;4964162;28;20298;-74
2024/01/01 04:43:57;;;;;;;262.13;97.87;;;;;;;;;;4945892;28;20402;-73
2024/01/01 04:46:22;;;;;;;258.40;97.90;;;;;;;;;;4957786;28;20243;-73
2024/01/01 04:48:48;;;;;;;268.70;101.03;;;;;;;;;;4959556;28;20227;-73
2024/01/01 04:51:13;;;;;;;264.93;98.30;;;;;;;;;;4954729;28;20230;-74
2024/01/01 04:53:38;;;;;;;254.07;96.60;;;;;;;;;;4955809;28;20303;-74
2024/01/01 04:56:04;;;;;;;252.80;94.30;;;;;;;;;;4953807;28;20623;-74
2024/01/01 04:58:31;;;;;;;260.40;97.00;;;;;;;;;;4946910;28;20255;-74
2024/01/01 05:00:57;;;;;;;260.57;95.97;;;;;;;;;;4939372;28;20224;-73
2024/01/01 05:03:22;;;;;;;264.47;96.23;;;;;;;;;;4964763;28;20227;-74
2024/01/01 05:05:47;;;;;;;253.90;95.83;;;;;;;;;;4967035;28;20254;-73
2024/01/01 05:08:13;;;;;;;263.00;94.10;;;;;;;;;;4949421;28;20740;-73
2024/01/01 05:10:40;;;;;;;264.83;94.77;;;;;;;;;;4950417;28;20596;-73
2024/01/01 05:13:07;;;;;;;230.00;84.27;;;;;;;;;;4965376;28;20224;-73
2024/01/01 05:15:32;;;;;;;233.43;87.43;;;;;;;;;;4948024;28;20231;-73
2024/01/01 05:17:58;;;;;;;231.27;86.13;;;;;;;;;;4949398;28;20228;-73
2024/01/01 05:20:24;;;;;;;213.57;81.87;;;;;;;;;;4967629;28;20366;-73
2024/01/01 05:22:49;;;;;;;217.83;80.27;;;;;;;;;;4948756;28;20728;-73
2024/01/01 05:25:14;;;;;;;212.73;80.63;;;;;;;;;;4966761;28;20251;-74
2024/01/01 05:27:39;;;;;;;203.87;77.97;;;;;;;;;;4960190;28;20258;-74
2024/01/01 05:30:05;;;;;;;215.63;79.63;;;;;;;;;;4966842;28;20359;-73
2024/01/01 05:32:31;;;;;;;207.43;78.80;;;;;;;;;;4954284;28;20283;-73
2024/01/01 05:34:56;;;;;;;207.23;78.90;;;;;;;;;;4964594;28;20232;-73
2024/01/01 05:37:22;;;;;;;206.77;77.27;;;;;;;;;;4967175;28;20228;-74
2024/01/01 05:39:47;;;;;;;199.77;73.73;;;;;;;;;;4949770;28;20239;-73
2024/01/01 05:42:13;;;;;;;204.63;75.70;;;;;;;;;;4962534;28;20234;-73
2024/01/01 05:44:38;;;;;;;196.67;73.53;;;;;;;;;;4967245;28;20970;-72
2024/01/01 05:47:04;;;;;;;191.37;74.33;;;;;;;;;;4950477;28;20248;-73
2024/01/01 05:49:29;;;;;;;193.63;74.77;;;;;;;;;;4967203;28;20323;-74
2024/01/01 05:51:54;;;;;;;195.43;75.70;;;;;;;;;;4965727;28;20303;-74
2024/01/01 05:54:20;;;;;;;197.33;73.37;;;;;;;;;;4963130;28;20231;-74
2024/01/01 05:56:45;;;;;;;186.97;71.23;;;;;;;;;;4966680;28;20224;-73
2024/01/01 05:59:10;;;;;;;190.10;73.23;;;;;;;;;;4966195;28;20235;-74
2024/01/01 06:01:36;;;;;;;205.17;76.83;;;;;;;;;;4961930;28;20219;-73
2024/01/01 06:04:01;;;;;;;183.23;73.10;;;;;;;;;;4955624;28;20261;-74
2024/01/01 06:06:26;;;;;;;197.70;75.57;;;;;;;;;;4965991;28;20232;-73
2024/01/01 06:08:52;;;;;;;197.67;75.23;;;;;;;;;;4942654;28;20925;-72
2024/01/01 06:11:17;;;;;;;193.47;72.40;;;;;;;;;;4952279;28;20227;-72
2024/01/01 06:13:43;;;;;;;186.60;72.20;;;;;;;;;;4965650;28;20335;-73
2024/01/01 06:16:08;;;;;;;180.27;69.37;;;;;;;;;;4959328;28;20216;-73
2024/01/01 06:18:33;;;;;;;194.23;72.23;;;;;;;;;;4958599;28;20216;-74
2024/01/01 06:20:59;;;;;;;184.30;69.23;;;;;;;;;;4964805;28;20743;-74
2024/01/01 06:23:24;;;;;;;180.37;67.90;;;;;;;;;;4960186;28;20227;-73
2024/01/01 06:25:51;;;;;;;183.17;69.93;;;;;;;;;;4965616;28;20623;-74
2024/01/01 06:28:17;;;;;;;177.73;67.10;;;;;;;;;;4950148;28;20229;-73
2024/01/01 06:30:43;;;;;;;186.90;68.57;;;;;;;;;;4960873;28;20660;-74
2024/01/01 06:33:08;;;;;;;176.83;66.73;;;;;;;;;;4964150;28;20220;-73
2024/01/01 06:35:33;;;;;;;179.87;68.53;;;;;;;;;;4965280;28;20255;-74
2024/01/01 06:37:59;;;;;;;182.13;68.83;;;;;;;;;;4949633;28;20269;-74
2024/01/01 06:40:24;;;;;;;184.57;68.37;;;;;;;;;;4945076;28;20319;-74
2024/01/01 06:42:49;;;;;;;175.90;68.33;;;;;;;;;;4963273;28;20315;-74
2024/01/01 06:45:15;;;;;;;179.00;66.40;;;;;;;;;;4964290;28;20255;-74
2024/01/01 06:47:40;;;;;;;184.57;69.23;;;;;;;;;;4945151;28;20252;-73
2024/01/01 06:50:06;;;;;;;183.43;70.60;;;;;;;;;;4954846;28;20706;-73
2024/01/01 06:52:31;;;;;;;189.17;70.93;;;;;;;;;;4964895;28;20277;-73
2024/01/01 06:54:56;;;;;;;179.90;69.33;;;;;;;;;;4965059;28;20235;-74
2024/01/01 06:57:22;;;;;;;196.80;71.50;;;;;;;;;;4965494;28;20709;-73
2024/01/01 06:59:47;;;;;;;185.70;71.00;;;;;;;;;;4949687;28;20263;-73
2024/01/01 07:02:13;;;;;;;186.97;70.50;;;;;;;;;;4959496;28;20231;-74
2024/01/01 07:04:38;;;;;;;191.90;74.20;;;;;;;;;;4957064;28;20383;-73
2024/01/01 07:07:03;;;;;;;198.10;76.77;;;;;;;;;;4947392;28;20302;-73
2024/01/01 07:09:29;;;;;;;198.37;77.13;;;;;;;;;;4967377;28;20326;-73
2024/01/01 07:11:55;;;;;;;198.27;76.13;;;;;;;;;;4955848;28;20228;-74
2024/01/01 07:14:20;;;;;;;188.93;73.60;;;;;;;;;;4963899;28;20697;-73
2024/01/01 07:16:45;;;;;;;189.13;75.27;;;;;;;;;;4969053;28;20235;-72
2024/01/01 07:19:11;;;;;;;191.63;74.33;;;;;;;;;;4945425;28;20231;-73
2024/01/01 07:21:36;;;;;;;199.70;76.17;;;;;;;;;;4965771;28;20212;-73
2024/01/01 07:24:01;;;;;;;188.77;73.63;;;;;;;;;;4968326;28;20220;-73
2024/01/01 07:26:27;;;;;;;177.33;70.13;;;;;;;;;;4950330;28;20252;-73
2024/01/01 07:28:52;;;;;;;187.07;73.10;;;;;;;;;;4963887;28;20228;-72
2024/01/01 07:31:18;;;;;;;191.87;72.13;;;;;;;;;;4965143;28;20295;-72
2024/01/01 07:33:43;;;;;;;176.00;69.73;;;;;;;;;;4965209;28;20232;-72
2024/01/01 07:36:09;;;;;;;177.37;69.27;;;;;;;;;;4963794;28;20344;-72
2024/01/01 07:38:34;;;;;;;184.27;71.37;;;;;;;;;;4964861;28;20216;-72
2024/01/01 07:41:00;;;;;;;175.97;71.17;;;;;;;;;;4964570;28;20290;-72
2024/01/01 07:43:26;;;;;;;182.07;70.60;;;;;;;;;;4965062;28;20226;-74
2024/01/01 07:45:51;;;;;;;183.70;74.03;;;;;;;;;;4957034;28;20773;-74
2024/01/01 07:48:17;;;;;;;185.87;73.40;;;;;;;;;;4958169;28;20323;-72
2024/01/01 07:50:42;;;;;;;178.63;73.37;;;;;;;;;;4964670;28;20636;-73
2024/01/01 07:53:07;;;;;;;187.27;74.40;;;;;;;;;;4963913;28;20307;-73
2024/01/01 07:55:33;;;;;;;159.97;63.00;;;;;;;;;;4947897;28;20228;-73
2024/01/01 07:57:58;;;;;;;159.07;61.23;;;;;;;;;;4963803;28;21010;-73
2024/01/01 08:00:24;;;;;;;148.30;57.87;;;;;;;;;;4964756;28;20220;-74
2024/01/01 08:02:50;;;;;;;144.07;56.43;;;;;;;;;;4946557;28;20223;-72
2024/01/01 08:05:15;;;;;;;143.73;56.57;;;;;;;;;;4961238;28;20231;-72
2024/01/01 08:07:41;;;;;;;143.97;55.60;;;;;;;;;;4964476;28;20623;-74
2024/01/01 08:10:06;;;;;;;138.60;54.27;;;;;;;;;;4955498;28;20240;-74
2024/01/01 08:12:31;;;;;;;136.43;53.43;;;;;;;;;;4946448;28;20898;-72
2024/01/01 08:14:57;;;;;;;134.57;52.47;;;;;;;;;;4940597;28;20295;-72
2024/01/01 08:17:23;;;;;;;136.37;54.20;;;;;;;;;;4957243;28;20694;-71
2024/01/01 08:19:48;;;;;;;143.70;53.90;;;;;;;;;;4962968;28;20335;-72
2024/01/01 08:22:13;;;;;;;139.23;52.27;;;;;;;;;;4960077;28;20238;-72
2024/01/01 08:24:39;;;;;;;139.53;53.63;;;;;;;;;;4953935;28;20243;-72
2024/01/01 08:27:06;;;;;;;142.03;53.03;;;;;;;;;;4952028;28;20236;-73
2024/01/01 08:29:31;;;;;;;138.57;52.67;;;;;;;;;;4964125;28;20231;-74
2024/01/01 08:31:57;;;;;;;137.07;52.97;;;;;;;;;;4946282;28;20223;-75
2024/01/01 08:34:22;;;;;;;129.60;52.17;;;;;;;;;;4962066;28;20236;-74
2024/01/01 08:36:48;;;;;;;134.43;53.00;;;;;;;;;;4963027;28;20620;-74
2024/01/01 08:39:13;;;;;;;138.87;53.10;;;;;;;;;;4960943;28;20620;-73
2024/01/01 08:41:42;;;;;;;139.77;53.70;;;;;;;;;;4956286;28;20612;-73
2024/01/01 08:44:08;;;;;;;139.07;53.80;;;;;;;;;;4977102;28;20940;-74
2024/01/01 08:46:33;;;;;;;141.03;55.90;;;;;;;;;;4958996;28;20328;-74
2024/01/01 08:48:58;;;;;;;139.80;55.17;;;;;;;;;;4946463;28;20772;-74
2024/01/01 08:51:24;;;;;;;138.20;54.77;;;;;;;;;;4949511;28;20224;-74
2024/01/01 08:53:49;;;;;;;141.93;54.37;;;;;;;;;;4955900;28;20314;-74
2024/01/01 08:56:14;;;;;;;138.37;53.33;;;;;;;;;;4945218;28;20228;-73
2024/01/01 08:58:40;;;;;;;142.10;54.27;;;;;;;;;;4962927;28;20228;-73
2024/01/01 09:01:05;;;;;;;140.53;53.47;;;;;;;;;;4961639;28;20314;-74
2024/01/01 09:03:30;;;;;;;140.30;52.97;;;;;;;;;;4955049;28;20223;-73
2024/01/01 09:05:57;;;;;;;131.13;51.53;;;;;;;;;;4961510;28;20590;-74
2024/01/01 09:08:23;;;;;;;129.17;50.47;;;;;;;;;;4959159;28;20381;-73
2024/01/01 09:10:48;;;;;;;127.43;50.60;;;;;;;;;;4963970;28;20247;-73
2024/01/01 09:13:14;;;;;;;126.43;48.70;;;;;;;;;;4954457;28;20220;-73
2024/01/01 09:15:39;;;;;;;137.97;52.13;;;;;;;;;;4943803;28;20227;-73
2024/01/01 09:18:05;;;;;;;124.50;50.00;;;;;;;;;;4961889;28;20212;-72
2024/01/01 09:20:30;;;;;;;134.43;51.07;;;;;;;;;;4960381;28;20220;-72
2024/01/01 09:22:56;;;;;;;119.40;48.10;;;;;;;;;;4961489;28;20232;-72
2024/01/01 09:25:21;;;;;;;122.20;47.60;;;;;;;;;;4962825;28;20223;-73
2024/01/01 09:27:47;;;;;;;122.47;46.90;;;;;;;;;;4953812;28;20228;-72
2024/01/01 09:30:12;;;;;;;125.33;50.43;;;;;;;;;;4960791;28;20315;-73
2024/01/01 09:32:38;;;;;;;125.13;48.80;;;;;;;;;;4961713;28;20769;-73
2024/01/01 09:35:04;;;;;;;127.40;48.93;;;;;;;;;;4950902;28;20336;-73
2024/01/01 09:37:29;;;;;;;117.37;47.37;;;;;;;;;;4945443;28;20251;-73
2024/01/01 09:39:55;;;;;;;120.70;48.47;;;;;;;;;;4962251;28;20942;-74
2024/01/01 09:42:20;;;;;;;123.80;48.80;;;;;;;;;;4961825;28;20224;-74
2024/01/01 09:44:53;;;;;;;125.63;49.90;;;;;;;;;;4964594;28;20669;-72
2024/01/01 09:47:18;;;;;;;119.30;48.17;;;;;;;;;;4958677;28;20322;-73
2024/01/01 09:49:43;;;;;;;125.53;49.43;;;;;;;;;;4946239;28;20227;-73
2024/01/01 09:52:11;;;;;;;117.43;47.77;;;;;;;;;;4957592;28;20454;-73
2024/01/01 09:54:36;;;;;;;115.57;46.17;;;;;;;;;;4946899;28;20698;-74
2024/01/01 09:57:02;;;;;;;124.10;49.10;;;;;;;;;;4964778;28;20240;-73
2024/01/01 09:59:35;;;;;;;118.20;46.67;;;;;;;;;;4966137;28;20250;-74
2024/01/01 10:02:09;;;;;;;117.83;47.77;;;;;;;;;;4963964;28;20312;-74
2024/01/01 10:04:34;;;;;;;112.73;46.30;;;;;;;;;;4964488;28;20223;-74
2024/01/01 10:07:00;;;;;;;115.53;46.57;;;;;;;;;;4952461;28;21075;-76
2024/01/01 10:09:25;;;;;;;108.97;45.40;;;;;;;;;;4947905;28;20296;-74
2024/01/01 10:11:50;;;;;;;113.07;47.70;;;;;;;;;;4962658;28;20318;-71
2024/01/01 10:14:16;;;;;;;113.70;46.27;;;;;;;;;;4967453;28;20231;-71
2024/01/01 10:16:41;;;;;;;110.43;45.47;;;;;;;;;;4963414;28;20224;-72
2024/01/01 10:19:07;;;;;;;107.17;44.27;;;;;;;;;;4959771;28;20224;-72
2024/01/01 10:21:37;;;;;;;106.20;44.50;;;;;;;;;;4957739;28;20231;-72
2024/01/01 10:24:16;;;;;;;114.17;44.33;;;;;;;;;;4945594;28;20738;-71
2024/01/01 10:26:45;;;;;;;108.43;43.40;;;;;;;;;;4948462;28;20228;-71
2024/01/01 10:29:11;;;;;;;103.53;43.23;;;;;;;;;;4947102;28;20306;-71
2024/01/01 10:31:37;;;;;;;103.47;41.97;;;;;;;;;;4956482;28;20212;-71
2024/01/01 10:34:03;;;;;;;97.07;42.03;;;;;;;;;;4957203;28;20224;-71
2024/01/01 10:36:29;;;;;;;105.17;42.97;;;;;;;;;;4949534;28;20933;-72
2024/01/01 10:38:54;;;;;;;105.03;41.67;;;;;;;;;;4950044;28;20207;-68
2024/01/01 10:41:19;;;;;;;101.70;42.67;;;;;;;;;;4959895;28;20216;-72
2024/01/01 10:43:45;;;;;;;106.27;43.70;;;;;;;;;;4959889;28;20247;-72
2024/01/01 10:46:11;;;;;;;158.83;63.83;;;;;;;;;;4957858;28;20252;-71
2024/01/01 10:48:36;;;;;;;154.43;60.63;;;;;;;;;;4963501;28;20274;-71
2024/01/01 10:51:10;;;;;;;162.77;64.13;;;;;;;;;;4948810;28;20239;-72
2024/01/01 10:53:36;;;;;;;167.53;67.40;;;;;;;;;;4963994;28;20282;-73
2024/01/01 10:56:19;;;;;;;173.63;69.97;;;;;;;;;;4963193;28;20244;-73
2024/01/01 10:58:54;;;;;;;169.07;70.20;;;;;;;;;;4963370;28;20728;-72
2024/01/01 11:01:20;;;;;;;165.53;68.00;;;;;;;;;;4951660;28;20656;-73
2024/01/01 11:03:48;;;;;;;167.13;68.03;;;;;;;;;;4949298;28;20246;-74
2024/01/01 11:06:26;;;;;;;166.43;68.40;;;;;;;;;;4964335;28;20236;-74
2024/01/01 11:08:52;;;;;;;158.90;64.60;;;;;;;;;;4957849;28;20234;-74
2024/01/01 11:11:20;;;;;;;157.20;62.40;;;;;;;;;;4963940;28;20220;-74
2024/01/01 11:13:53;;;;;;;165.47;65.93;;;;;;;;;;4957821;28;20317;-74
2024/01/01 11:16:19;;;;;;;150.53;63.33;;;;;;;;;;4978089;28;20218;-74
2024/01/01 11:18:44;;;;;;;148.90;60.80;;;;;;;;;;4964546;28;20224;-73
2024/01/01 11:21:09;;;;;;;150.53;60.13;;;;;;;;;;4948777;28;20228;-73
2024/01/01 11:23:39;;;;;;;150.70;60.90;;;;;;;;;;4944703;28;20228;-73
2024/01/01 11:26:23;;;;;;;145.57;59.30;;;;;;;;;;4963319;28;20973;-72
2024/01/01 11:28:52;;;;;;;138.97;57.37;;;;;;;;;;4962751;28;20228;-72
2024/01/01 11:31:17;;;;;;;120.33;50.90;;;;;;;;;;4956389;28;20263;-73
2024/01/01 11:33:42;;;;;;;110.60;47.07;;;;;;;;;;4963192;28;20231;-72
2024/01/01 11:36:11;;;;;;;108.10;47.53;;;;;;;;;;4959725;28;20228;-73
2024/01/01 11:38:39;;;;;;;118.90;50.00;;;;;;;;;;4964086;28;20216;-74
2024/01/01 11:41:05;;;;;;;102.43;45.47;;;;;;;;;;4968811;28;20286;-73
2024/01/01 11:43:30;;;;;;;111.87;45.87;;;;;;;;;;4962553;28;20378;-75
2024/01/01 11:45:56;;;;;;;115.23;48.17;;;;;;;;;;4960276;28;20315;-74
2024/01/01 11:48:22;;;;;;;118.13;50.57;;;;;;;;;;4959040;28;20220;-74
2024/01/01 11:50:49;;;;;;;119.40;51.20;;;;;;;;;;4961961;28;20232;-73
2024/01/01 11:53:17;;;;;;;124.90;51.23;;;;;;;;;;4962336;28;20219;-74
2024/01/01 11:55:42;;;;;;;114.10;48.57;;;;;;;;;;4956097;28;20219;-72
2024/01/01 11:58:08;;;;;;;107.73;45.93;;;;;;;;;;4953666;28;20231;-72
2024/01/01 12:00:34;;;;;;;97.63;44.43;;;;;;;;;;4954612;28;20298;-72
2024/01/01 12:03:00;;;;;;;104.43;43.07;;;;;;;;;;4947025;28;20593;-72
2024/01/01 12:05:25;;;;;;;89.30;40.13;;;;;;;;;;4963046;28;20740;-72
2024/01/01 12:07:50;;;;;;;81.77;36.43;;;;;;;;;;4963457;28;20291;-71
2024/01/01 12:10:18;;;;;;;79.17;35.33;;;;;;;;;;4956231;28;20290;-71
2024/01/01 12:12:44;;;;;;;74.73;34.07;;;;;;;;;;4938361;28;20627;-73
2024/01/01 12:15:10;;;;;;;74.17;33.67;;;;;;;;;;4958383;28;20232;-73
2024/01/01 12:17:39;;;;;;;73.83;32.93;;;;;;;;;;4956888;28;20216;-71
2024/01/01 12:20:07;;;;;;;69.03;32.07;;;;;;;;;;4961837;28;20298;-72
2024/01/01 12:22:32;;;;;;;61.93;28.83;;;;;;;;;;4964022;28;20236;-73
2024/01/01 12:24:58;;;;;;;59.27;28.17;;;;;;;;;;4950255;28;20238;-72
2024/01/01 12:27:23;;;;;;;56.70;26.80;;;;;;;;;;4956004;28;20783;-72
2024/01/01 12:29:49;;;;;;;57.03;26.87;;;;;;;;;;4965240;28;20224;-72
2024/01/01 12:32:14;;;;;;;60.73;28.33;;;;;;;;;;4959423;28;20251;-73
2024/01/01 12:34:40;;;;;;;60.57;27.57;;;;;;;;;;4947484;28;20318;-72
2024/01/01 12:37:05;;;;;;;55.70;26.13;;;;;;;;;;4970402;28;20220;-72
2024/01/01 12:39:30;;;;;;;59.27;27.13;;;;;;;;;;4961372;28;20612;-73
2024/01/01 12:41:56;;;;;;;57.03;25.73;;;;;;;;;;4961848;28;20993;-73
2024/01/01 12:44:21;;;;;;;55.90;25.40;;;;;;;;;;4953670;28;20796;-72
2024/01/01 12:46:46;;;;;;;59.23;25.97;;;;;;;;;;4955925;28;20326;-71
2024/01/01 12:49:12;;;;;;;57.57;26.93;;;;;;;;;;4960177;28;20331;-72
2024/01/01 12:51:37;;;;;;;58.60;27.77;;;;;;;;;;4953323;28;20290;-71
2024/01/01 12:54:03;;;;;;;58.90;27.87;;;;;;;;;;4961919;28;20315;-71
2024/01/01 12:56:29;;;;;;;61.80;27.73;;;;;;;;;;4961764;28;20224;-72
2024/01/01 12:58:54;;;;;;;56.60;26.43;;;;;;;;;;4965563;28;20650;-73
2024/01/01 13:01:19;;;;;;;54.23;26.17;;;;;;;;;;4944313;28;20800;-73
2024/01/01 13:03:46;;;;;;;49.47;24.13;;;;;;;;;;4946190;28;20340;-72
2024/01/01 13:06:17;;;;;;;49.50;24.20;;;;;;;;;;4958396;28;20236;-71
2024/01/01 13:08:44;;;;;;;49.93;23.70;;;;;;;;;;4953853;28;20563;-71
2024/01/01 13:11:10;;;;;;;47.43;22.40;;;;;;;;;;4951410;28;20791;-72
2024/01/01 13:13:36;;;;;;;46.80;22.03;;;;;;;;;;4962903;28;20243;-72
2024/01/01 13:16:01;;;;;;;50.67;21.67;;;;;;;;;;4935381;28;20891;-71
2024/01/01 13:18:27;;;;;;;44.30;21.27;;;;;;;;;;4952516;28;20274;-72
2024/01/01 13:20:52;;;;;;;44.60;21.17;;;;;;;;;;4937694;28;20227;-71
2024/01/01 13:23:18;;;;;;;44.57;20.97;;;;;;;;;;4951311;28;20219;-70
2024/01/01 13:25:44;;;;;;;43.80;20.90;;;;;;;;;;4952592;28;20954;-71
2024/01/01 13:28:09;;;;;;;40.13;19.73;;;;;;;;;;4935072;28;20224;-71
2024/01/01 13:30:35;;;;;;;42.07;20.03;;;;;;;;;;4946351;28;21013;-71
2024/01/01 13:33:00;;;;;;;43.37;20.37;;;;;;;;;;4945835;28;20810;-70
2024/01/01 13:35:25;;;;;;;47.70;21.67;;;;;;;;;;4950858;28;21015;-71
2024/01/01 13:37:51;;;;;;;42.00;20.30;;;;;;;;;;4965152;28;20220;-71
2024/01/01 13:40:16;;;;;;;44.30;21.17;;;;;;;;;;4965693;28;20378;-71
2024/01/01 13:42:42;;;;;;;47.47;22.17;;;;;;;;;;4958889;28;20648;-71
2024/01/01 13:45:08;;;;;;;47.07;21.47;;;;;;;;;;4967198;28;20303;-71
2024/01/01 13:47:34;;;;;;;44.97;21.57;;;;;;;;;;4961533;28;20245;-73
2024/01/01 13:49:59;;;;;;;44.77;20.83;;;;;;;;;;4955675;28;20283;-72
2024/01/01 13:52:24;;;;;;;47.30;21.73;;;;;;;;;;4951597;28;20594;-71